Time,TemperatureF,DewpointF,PressureIn,WindDirection,WindDirectionDegrees,WindSpeedMPH,WindSpeedGustMPH,Humidity,HourlyPrecipIn,Conditions,Clouds,dailyrainin,SolarRadiationWatts/m^2,SoftwareType,DateUTC
2013-09-06 00:22:00,45.0,43.0,-100.00,East,91,0.0,1.0,91,0.00,,,0.01,0.000000,,2013-09-06 08:22:00,
2013-09-06 00:32:00,45.0,43.0,-100.00,East,91,0.0,1.0,91,0.00,,,0.01,0.000000,,2013-09-06 08:32:00,
2013-09-06 00:42:00,45.0,43.0,-100.00,East,91,0.0,1.0,91,0.00,,,0.01,0.000000,,2013-09-06 08:42:00,
2013-09-06 00:52:00,45.0,43.0,-100.00,East,91,0.0,1.0,91,0.00,,,0.01,0.000000,,2013-09-06 08:52:00,
2013-09-06 01:22:00,45.0,43.0,-100.00,ENE,59,1.0,1.0,94,0.00,,,0.00,0.000000,,2013-09-06 09:22:00,
2013-09-06 01:33:00,45.0,43.0,-100.00,ENE,59,1.0,1.0,94,0.00,,,0.00,0.000000,,2013-09-06 09:33:00,
2013-09-06 01:43:00,45.0,43.0,-100.00,ENE,59,1.0,1.0,94,0.00,,,0.00,0.000000,,2013-09-06 09:43:00,
2013-09-06 01:53:00,45.0,43.0,-100.00,ENE,59,1.0,1.0,94,0.00,,,0.00,0.000000,,2013-09-06 09:53:00,
2013-09-06 02:23:00,44.0,43.0,-100.00,ESE,104,0.0,2.0,95,0.00,,,0.00,0.000000,,2013-09-06 10:23:00,
2013-09-06 02:32:00,44.0,43.0,-100.00,ESE,104,0.0,2.0,95,0.00,,,0.00,0.000000,,2013-09-06 10:32:00,
2013-09-06 02:42:00,44.0,43.0,-100.00,ESE,104,0.0,2.0,95,0.00,,,0.00,0.000000,,2013-09-06 10:42:00,
2013-09-06 02:53:00,44.0,43.0,-100.00,ESE,104,0.0,2.0,95,0.00,,,0.00,0.000000,,2013-09-06 10:53:00,
2013-09-06 03:22:00,43.0,42.0,-100.00,ENE,77,1.0,2.0,97,0.00,,,0.00,0.000000,,2013-09-06 11:22:00,
2013-09-06 03:33:00,43.0,42.0,-100.00,ENE,77,1.0,2.0,97,0.00,,,0.00,0.000000,,2013-09-06 11:33:00,
2013-09-06 03:42:00,43.0,42.0,-100.00,ENE,77,1.0,2.0,97,0.00,,,0.00,0.000000,,2013-09-06 11:42:00,
2013-09-06 03:52:00,43.0,42.0,-100.00,ENE,77,1.0,2.0,97,0.00,,,0.00,0.000000,,2013-09-06 11:52:00,
2013-09-06 04:21:00,42.0,41.0,-100.00,West,278,1.0,3.0,98,0.00,,,0.00,0.000000,,2013-09-06 12:21:00,
2013-09-06 04:32:00,42.0,41.0,-100.00,West,278,1.0,3.0,98,0.00,,,0.00,0.000000,,2013-09-06 12:32:00,
2013-09-06 04:42:00,42.0,41.0,-100.00,West,278,1.0,3.0,98,0.00,,,0.00,0.000000,,2013-09-06 12:42:00,
2013-09-06 04:52:00,42.0,41.0,-100.00,West,278,1.0,3.0,98,0.00,,,0.00,0.000000,,2013-09-06 12:52:00,
2013-09-06 05:22:00,41.0,40.0,-100.00,East,91,1.0,2.0,98,0.00,,,0.00,0.000000,,2013-09-06 13:22:00,
2013-09-06 05:32:00,41.0,40.0,-100.00,East,91,1.0,2.0,98,0.00,,,0.00,0.000000,,2013-09-06 13:32:00,
2013-09-06 05:52:00,41.0,40.0,-100.00,East,91,1.0,2.0,98,0.00,,,0.00,0.000000,,2013-09-06 13:52:00,
2013-09-06 06:22:00,42.0,42.0,-100.00,WNW,290,1.0,2.0,99,0.00,,,0.00,0.000000,,2013-09-06 14:22:00,
2013-09-06 06:32:00,42.0,42.0,-100.00,WNW,290,1.0,2.0,99,0.00,,,0.00,0.000000,,2013-09-06 14:32:00,
2013-09-06 06:52:00,42.0,42.0,-100.00,WNW,290,1.0,2.0,99,0.00,,,0.00,0.000000,,2013-09-06 14:52:00,
2013-09-06 07:22:00,42.0,41.0,-100.00,ESE,113,1.0,2.0,98,0.00,,,-99.99,0.000000,,2013-09-06 15:22:00,
2013-09-06 07:34:00,42.0,41.0,-100.00,ESE,113,1.0,2.0,98,0.00,,,-99.99,0.000000,,2013-09-06 15:34:00,
2013-09-06 07:43:00,42.0,41.0,-100.00,ESE,113,1.0,2.0,98,0.00,,,-99.99,0.000000,,2013-09-06 15:43:00,
2013-09-06 07:53:00,42.0,41.0,-100.00,ESE,113,1.0,2.0,98,0.00,,,-99.99,0.000000,,2013-09-06 15:53:00,
2013-09-06 08:24:00,43.0,42.0,-100.00,WNW,301,0.0,3.0,98,0.02,,,0.02,2.000000,,2013-09-06 16:24:00,
2013-09-06 08:33:00,43.0,42.0,-100.00,WNW,301,0.0,3.0,98,0.02,,,0.02,2.000000,,2013-09-06 16:33:00,
2013-09-06 08:42:00,43.0,42.0,-100.00,WNW,301,0.0,3.0,98,0.02,,,0.02,2.000000,,2013-09-06 16:42:00,
2013-09-06 08:53:00,43.0,42.0,-100.00,WNW,301,0.0,3.0,98,0.02,,,0.02,2.000000,,2013-09-06 16:53:00,
2013-09-06 09:00:00,43.0,43.0,-100.00,South,184,1.0,3.0,99,-99.99,,,-99.99,,,2013-09-06 17:00:00,
2013-09-06 09:24:00,43.0,43.0,-100.00,South,184,1.0,3.0,99,0.04,,,0.06,5.000000,,2013-09-06 17:24:00,
2013-09-06 09:34:00,43.0,43.0,-100.00,South,184,1.0,3.0,99,0.04,,,0.06,5.000000,,2013-09-06 17:34:00,
2013-09-06 09:53:00,43.0,43.0,-100.00,South,184,1.0,3.0,99,0.04,,,0.06,5.000000,,2013-09-06 17:53:00,
2013-09-06 10:22:00,43.0,43.0,-100.00,ESE,113,1.0,2.0,99,0.03,,,0.09,10.000000,,2013-09-06 18:22:00,
2013-09-06 10:32:00,43.0,43.0,-100.00,ESE,113,1.0,2.0,99,0.03,,,0.09,10.000000,,2013-09-06 18:32:00,
2013-09-06 10:42:00,43.0,43.0,-100.00,ESE,113,1.0,2.0,99,0.03,,,0.09,10.000000,,2013-09-06 18:42:00,
2013-09-06 10:52:00,43.0,43.0,-100.00,ESE,113,1.0,2.0,99,0.03,,,0.09,10.000000,,2013-09-06 18:52:00,
2013-09-06 11:22:00,44.0,44.0,-100.00,NE,42,1.0,3.0,99,0.01,,,0.10,33.000000,,2013-09-06 19:22:00,
2013-09-06 11:32:00,44.0,44.0,-100.00,NE,42,1.0,3.0,99,0.01,,,0.10,33.000000,,2013-09-06 19:32:00,
2013-09-06 11:52:00,44.0,44.0,-100.00,NE,42,1.0,3.0,99,0.01,,,0.10,33.000000,,2013-09-06 19:52:00,
2013-09-06 12:23:00,46.0,46.0,-100.00,South,179,1.0,3.0,99,0.00,,,0.10,55.000000,,2013-09-06 20:23:00,
2013-09-06 12:32:00,46.0,46.0,-100.00,South,179,1.0,3.0,99,0.00,,,0.10,55.000000,,2013-09-06 20:32:00,
2013-09-06 12:52:00,46.0,46.0,-100.00,South,179,1.0,3.0,99,0.00,,,0.10,55.000000,,2013-09-06 20:52:00,
2013-09-06 13:22:00,47.0,46.0,-100.00,East,81,1.0,2.0,98,0.03,,,0.13,75.000000,,2013-09-06 21:22:00,
2013-09-06 13:34:00,47.0,46.0,-100.00,East,81,1.0,2.0,98,0.03,,,0.13,75.000000,,2013-09-06 21:34:00,
2013-09-06 13:43:00,47.0,46.0,-100.00,East,81,1.0,2.0,98,0.03,,,0.13,75.000000,,2013-09-06 21:43:00,
2013-09-06 13:54:00,47.0,46.0,-100.00,East,81,1.0,2.0,98,0.03,,,0.13,75.000000,,2013-09-06 21:54:00,
2013-09-06 14:23:00,48.0,47.0,-100.00,WNW,288,2.0,6.0,98,0.00,,,0.13,57.000000,,2013-09-06 22:23:00,
2013-09-06 14:33:00,48.0,47.0,-100.00,WNW,288,2.0,6.0,98,0.00,,,0.13,57.000000,,2013-09-06 22:33:00,
2013-09-06 14:44:00,48.0,47.0,-100.00,WNW,288,2.0,6.0,98,0.00,,,0.13,57.000000,,2013-09-06 22:44:00,
2013-09-06 14:53:00,48.0,47.0,-100.00,WNW,288,2.0,6.0,98,0.00,,,0.13,57.000000,,2013-09-06 22:53:00,
2013-09-06 15:23:00,51.0,48.0,-100.00,NNE,16,3.0,8.0,91,0.00,,,0.13,236.000000,,2013-09-06 23:23:00,
2013-09-06 15:33:00,51.0,48.0,-100.00,NNE,16,3.0,8.0,91,0.00,,,0.13,236.000000,,2013-09-06 23:33:00,
2013-09-06 15:42:00,51.0,48.0,-100.00,NNE,16,3.0,8.0,91,0.00,,,0.13,236.000000,,2013-09-06 23:42:00,
2013-09-06 15:52:00,51.0,48.0,-100.00,NNE,16,3.0,8.0,91,0.00,,,0.13,236.000000,,2013-09-06 23:52:00,
2013-09-06 16:22:00,52.0,49.0,-100.00,North,358,2.0,6.0,89,0.00,,,0.13,179.000000,,2013-09-07 00:22:00,
2013-09-06 16:32:00,52.0,49.0,-100.00,North,358,2.0,6.0,89,0.00,,,0.13,179.000000,,2013-09-07 00:32:00,
2013-09-06 16:42:00,52.0,49.0,-100.00,North,358,2.0,6.0,89,0.00,,,0.13,179.000000,,2013-09-07 00:42:00,
2013-09-06 16:52:00,52.0,49.0,-100.00,North,358,2.0,6.0,89,0.00,,,0.13,179.000000,,2013-09-07 00:52:00,
2013-09-06 17:21:00,55.0,51.0,-100.00,ENE,74,3.0,6.0,86,0.00,,,0.13,244.000000,,2013-09-07 01:21:00,
2013-09-06 17:32:00,55.0,51.0,-100.00,ENE,74,3.0,6.0,86,0.00,,,0.13,244.000000,,2013-09-07 01:32:00,
2013-09-06 17:53:00,55.0,51.0,-100.00,ENE,74,3.0,6.0,86,0.00,,,0.13,244.000000,,2013-09-07 01:53:00,
2013-09-06 18:23:00,57.0,51.0,-100.00,ESE,108,2.0,5.0,79,0.00,,,0.13,265.000000,,2013-09-07 02:23:00,
2013-09-06 18:32:00,57.0,51.0,-100.00,ESE,108,2.0,5.0,79,0.00,,,0.13,265.000000,,2013-09-07 02:32:00,
2013-09-06 18:42:00,57.0,51.0,-100.00,ESE,108,2.0,5.0,79,0.00,,,0.13,265.000000,,2013-09-07 02:42:00,
2013-09-06 18:52:00,57.0,51.0,-100.00,ESE,108,2.0,5.0,79,0.00,,,0.13,265.000000,,2013-09-07 02:52:00,
2013-09-06 19:23:00,56.0,51.0,-100.00,North,9,2.0,11.0,82,0.00,,,0.13,219.000000,,2013-09-07 03:23:00,
2013-09-06 19:34:00,56.0,51.0,-100.00,North,9,2.0,11.0,82,0.00,,,0.13,219.000000,,2013-09-07 03:34:00,
2013-09-06 19:44:00,56.0,51.0,-100.00,North,9,2.0,11.0,82,0.00,,,0.13,219.000000,,2013-09-07 03:44:00,
2013-09-06 19:54:00,56.0,51.0,-100.00,North,9,2.0,11.0,82,0.00,,,0.13,219.000000,,2013-09-07 03:54:00,
2013-09-06 20:23:00,53.0,49.0,-100.00,NE,43,2.0,5.0,85,0.00,,,0.13,104.000000,,2013-09-07 04:23:00,
2013-09-06 20:34:00,53.0,49.0,-100.00,NE,43,2.0,5.0,85,0.00,,,0.13,104.000000,,2013-09-07 04:34:00,
2013-09-06 20:43:00,53.0,49.0,-100.00,NE,43,2.0,5.0,85,0.00,,,0.13,104.000000,,2013-09-07 04:43:00,
2013-09-06 20:54:00,53.0,49.0,-100.00,NE,43,2.0,5.0,85,0.00,,,0.13,104.000000,,2013-09-07 04:54:00,
2013-09-06 21:23:00,49.0,48.0,-100.00,North,8,2.0,3.0,95,0.00,,,0.13,14.000000,,2013-09-07 05:23:00,
2013-09-06 21:33:00,49.0,48.0,-100.00,North,8,2.0,3.0,95,0.00,,,0.13,14.000000,,2013-09-07 05:33:00,
2013-09-06 21:52:00,49.0,48.0,-100.00,North,8,2.0,3.0,95,0.00,,,0.13,14.000000,,2013-09-07 05:52:00,
2013-09-06 22:21:00,49.0,48.0,-100.00,WNW,287,3.0,5.0,95,0.00,,,0.13,0.000000,,2013-09-07 06:21:00,
2013-09-06 22:33:00,49.0,48.0,-100.00,WNW,287,3.0,5.0,95,0.00,,,0.13,0.000000,,2013-09-07 06:33:00,
2013-09-06 22:52:00,49.0,48.0,-100.00,WNW,287,3.0,5.0,95,0.00,,,0.13,0.000000,,2013-09-07 06:52:00,
2013-09-06 23:22:00,48.0,47.0,-100.00,NW,307,1.0,6.0,96,0.01,,,0.14,0.000000,,2013-09-07 07:22:00,
2013-09-06 23:33:00,48.0,47.0,-100.00,NW,307,1.0,6.0,96,0.01,,,0.14,0.000000,,2013-09-07 07:33:00,
2013-09-06 23:42:00,48.0,47.0,-100.00,NW,307,1.0,6.0,96,0.01,,,0.14,0.000000,,2013-09-07 07:42:00,
2013-09-06 23:52:00,48.0,47.0,-100.00,NW,307,1.0,6.0,96,0.01,,,0.14,0.000000,,2013-09-07 07:52:00,